Brookhaven Weather

Current Time: 10:10 Zulu

HWV METARs

Local Time Temperature Dew Point Wind Direction Wind Speed Wind Gust Sky Vis.
10/21/2018 9:56:00 AM 8.3° c 5.0° c 340° 10 kt - FEW 3300 ft AGL 9.0 sm
10/21/2018 8:56:00 AM 9.4° c 5.0° c 320° 9 kt - BKN 5000 ft AGL 10.0 sm
10/21/2018 7:56:00 AM 9.4° c 6.1° c 360° 8 kt - BKN 7000 ft AGL 10.0 sm
10/21/2018 6:56:00 AM 10.0° c 7.2° c 310° 6 kt - BKN 7500 ft AGL 10.0 sm

ISP TAF:

KISP 210843Z 2109/2206 31011G17KT P6SM VCSH SCT025 BKN040 TEMPO 2110/2112 BKN025 
FM211200 32018G27KT P6SM BKN040 
FM211300 33022G33KT P6SM FEW050 SCT150 
FM212200 31015G25KT P6SM FEW050 
FM220200 32010KT P6SM FEW050
Weather data provided by aviationweather.gov. Pilots must verify weather before flying.